Sikinos — 9HA2865 — position and weather

sailwx.info

Track history (hours):
 
Tides and Currents Weather Stations Pressure Air Temp Water Temp Dewpoint Dewpoint Depression Visibility Wind Speed Wind Dir Waves Ship Positions

Sikinos

Last reported at 2016-Jul-30 06:33 UTC. Time now 2016-Jul-30 07:22 UTC.
Position N 51°21' E 002°50'.

Length 90 m; draft 4.8 m.

Type: Ship (hazmat cat A). MMSI: 256462000.

Date/timePositionNaut miles runAvg speedWind from/ knotsBaromVisibWave heightAir tempDewpointWater temp
2016-Jul-30 06:33N 51°21' E 002°50'1211.7
2016-Jul-30 05:33N 51°22' E 002°31'1111.3
2016-Jul-30 04:33N 51°17' E 002°15'1111.2
2016-Jul-30 03:33N 51°11' E 001°60'1111.0
2016-Jul-30 02:33N 51°05' E 001°46'1111.2
2016-Jul-30 01:33N 50°57' E 001°32'7412.1
2016-Jul-29 19:28N 50°01' E 000°16'1213.3
2016-Jul-29 18:33N 49°53' E 000°03'1312.6
2016-Jul-29 17:33N 49°43' W 000°09'1312.8
2016-Jul-29 16:33N 49°31' E 000°00'7 6.5
2016-Jul-29 15:33N 49°28' E 000°09'0 0.0
2016-Jul-29 14:33N 49°28' E 000°09'0 0.0
2016-Jul-29 13:33N 49°28' E 000°09'0 0.0
2016-Jul-29 12:30N 49°28' E 000°09'0 0.0
2016-Jul-29 11:33N 49°28' E 000°09'0 0.0
2016-Jul-29 10:33N 49°28' E 000°09'0 0.0
2016-Jul-29 09:33N 49°28' E 000°09'1 1.2
2016-Jul-29 08:34N 49°28' E 000°07'8 7.5
2016-Jul-29 07:31N 49°30' W 000°05'0 0.0
2016-Jul-29 06:31N 49°30' W 000°05'0 0.0
2016-Jul-29 05:31N 49°30' W 000°05'0 0.0
2016-Jul-29 04:31N 49°30' W 000°05'0 0.0
2016-Jul-29 03:31N 49°30' W 000°05'0 0.0
2016-Jul-29 02:31N 49°30' W 000°05'0 0.0
2016-Jul-29 01:31N 49°30' W 000°05'0 0.0
2016-Jul-29 00:31N 49°30' W 000°05'5 5.2
2016-Jul-28 23:33N 49°35' W 000°06'1212.4
2016-Jul-28 22:33N 49°47' W 000°10'1212.3
2016-Jul-28 21:33N 49°59' W 000°07'1212.2
2016-Jul-28 20:33N 50°11' W 000°06'1512.1
2016-Jul-28 19:20N 50°26' W 000°10'1012.1
2016-Jul-28 18:33N 50°29' E 000°04'1211.7
2016-Jul-28 17:33N 50°32' E 000°22'3510.9
2016-Jul-28 14:18N 50°50' E 001°10'1012.9
2016-Jul-28 13:33N 50°57' E 001°21'1413.8
2016-Jul-28 12:34N 51°07' E 001°36'1313.1
2016-Jul-28 11:33N 51°17' E 001°49'1212.3
2016-Jul-28 10:33N 51°28' E 001°58'1111.3
2016-Jul-28 09:33N 51°38' E 002°07'1211.0
2016-Jul-28 08:30N 51°48' E 002°16'2211.3
2016-Jul-28 06:33N 52°10' E 002°17'4112.9
2016-Jul-28 03:25N 52°48' E 001°53'1214.2
2016-Jul-28 02:33N 52°55' E 001°37'1414.1
2016-Jul-28 01:33N 53°07' E 001°24'1413.8
2016-Jul-28 00:32N 53°19' E 001°11'1313.2
2016-Jul-27 23:33N 53°27' E 000°54'1312.7
2016-Jul-27 22:31N 53°37' E 000°41'5 1.5
2016-Jul-27 19:25N 53°42' E 000°40'15 1.9
2016-Jul-27 11:31N 53°32' E 000°20'8 8.3
2016-Jul-27 10:33N 53°33' E 000°07'1110.6
2016-Jul-27 09:34N 53°38' W 000°09'2 1.6
2016-Jul-27 08:33N 53°38' W 000°12'0 0.0
2016-Jul-27 07:33N 53°38' W 000°12'0 0.0
2016-Jul-27 06:30N 53°38' W 000°12'0 0.0
2016-Jul-27 05:33N 53°38' W 000°12'6 6.0
2016-Jul-27 04:33N 53°36' W 000°02'10 9.8
2016-Jul-27 03:33N 53°33' E 000°13'7 6.7
2016-Jul-27 02:33N 53°33' E 000°25'2412.0
2016-Jul-27 00:32N 53°20' E 000°59'2210.9
2016-Jul-26 22:32N 53°05' E 001°25'1212.0
2016-Jul-26 21:33N 52°56' E 001°37'1413.3
2016-Jul-26 20:32N 52°47' E 001°54'5813.8
2016-Jul-26 16:21N 51°54' E 002°31'1112.2
2016-Jul-26 15:28N 51°47' E 002°44'2211.4
2016-Jul-26 13:34N 51°42' E 003°18'1110.7
2016-Jul-26 12:33N 51°32' E 003°26'10 9.6
2016-Jul-26 11:33N 51°26' E 003°38'3 2.8
2016-Jul-26 10:31N 51°28' E 003°42'0 0.0
2016-Jul-26 09:31N 51°28' E 003°42'0 0.0
2016-Jul-26 08:31N 51°28' E 003°42'0 0.0
2016-Jul-26 07:31N 51°28' E 003°42'0 0.0
2016-Jul-26 06:31N 51°28' E 003°42'0 0.0
2016-Jul-26 05:31N 51°28' E 003°42'0 0.0
2016-Jul-26 04:31N 51°28' E 003°42'0 0.0
2016-Jul-26 03:31N 51°28' E 003°42'0 0.0
2016-Jul-26 02:25N 51°28' E 003°42'0 0.0
2016-Jul-26 01:31N 51°28' E 003°42'0 0.0
2016-Jul-26 00:31N 51°28' E 003°42'0 0.0
2016-Jul-25 23:31N 51°28' E 003°42'3 2.7
2016-Jul-25 22:34N 51°26' E 003°39'1010.3
2016-Jul-25 21:33N 51°24' E 003°22'1110.8
2016-Jul-25 20:33N 51°24' E 003°05'1212.2
2016-Jul-25 19:33N 51°22' E 002°46'4 4.2
2016-Jul-25 18:33N 51°22' E 002°39'3 2.9
2016-Jul-25 17:33N 51°20' E 002°35'4 3.6
2016-Jul-25 16:33N 51°21' E 002°30'1514.8
2016-Jul-25 15:33N 51°15' E 002°09'1414.4
2016-Jul-25 14:33N 51°07' E 001°49'6 6.0
2016-Jul-25 13:33N 51°03' E 001°56'10 9.6
2016-Jul-25 12:33N 51°01' E 002°11'0 0.1
2016-Jul-25 11:11N 51°01' E 002°11'0 0.0
2016-Jul-25 10:14N 51°01' E 002°11'0 0.0
2016-Jul-25 09:32N 51°01' E 002°11'0 0.2
2016-Jul-25 07:32N 51°01' E 002°10'9 9.1
2016-Jul-25 06:33N 51°02' E 001°56'3 3.1
2016-Jul-25 05:33N 51°05' E 001°58'1010.3
2016-Jul-25 04:33N 51°09' E 002°13'10 9.8
2016-Jul-25 03:32N 51°14' E 002°27'1010.2
2016-Jul-25 02:33N 51°20' E 002°39'9 8.8
2016-Jul-25 01:32N 51°22' E 002°53'1212.0
2016-Jul-25 00:33N 51°21' E 003°12'1 0.6
2016-Jul-24 22:20N 51°20' E 003°12'0 0.0
2016-Jul-24 20:26N 51°20' E 003°12'0 0.0
2016-Jul-24 15:26N 51°20' E 003°12'0 0.0
2016-Jul-24 14:33N 51°20' E 003°12'0 0.0
2016-Jul-24 13:33N 51°20' E 003°12'0 0.0
2016-Jul-24 12:33N 51°20' E 003°12'1 0.8
2016-Jul-24 11:22N 51°21' E 003°12'0 0.0
2016-Jul-24 07:22N 51°21' E 003°12'0 0.0
2016-Jul-24 05:28N 51°21' E 003°12'0 0.0
2016-Jul-24 04:28N 51°21' E 003°12'0 0.0
2016-Jul-24 03:19N 51°21' E 003°12'0 0.0
2016-Jul-24 02:28N 51°21' E 003°12'0 0.0
2016-Jul-24 00:28N 51°21' E 003°12'0 0.0
2016-Jul-23 19:33N 51°21' E 003°12'7 7.5
2016-Jul-23 18:33N 51°21' E 003°00'1111.0
2016-Jul-23 17:33N 51°24' E 002°43'1110.6
2016-Jul-23 16:34N 51°34' E 002°41'1110.9
2016-Jul-23 15:34N 51°45' E 002°42'1010.2
2016-Jul-23 14:33N 51°55' E 002°36'2711.6
2016-Jul-23 12:12N 52°03' E 003°18'913.0
2016-Jul-23 11:31N 52°04' E 003°32'1111.9
2016-Jul-23 10:34N 52°02' E 003°51'1111.0
2016-Jul-23 09:33N 51°58' E 004°08'9 9.0
2016-Jul-23 08:34N 51°53' E 004°19'1 0.0
2016-Jul-22 14:34N 51°53' E 004°19'10 9.9
2016-Jul-22 13:33N 51°59' E 004°05'1010.3
2016-Jul-22 12:33N 52°03' E 003°50'1212.2
2016-Jul-22 11:33N 52°15' E 003°46'1413.6
2016-Jul-22 10:31N 52°29' E 003°51'7612.0
2016-Jul-22 04:11N 53°33' E 005°00'914.6
2016-Jul-22 03:33N 53°36' E 005°15'1414.5
2016-Jul-22 02:34N 53°40' E 005°38'1414.2
2016-Jul-22 01:34N 53°45' E 006°00'1413.5
2016-Jul-22 00:33N 53°49' E 006°22'1312.6
2016-Jul-21 23:33N 53°52' E 006°43'1211.9
2016-Jul-21 22:33N 53°55' E 007°02'1211.7
2016-Jul-21 21:33N 53°58' E 007°22'1111.2
2016-Jul-21 20:34N 53°58' E 007°41'1110.6
2016-Jul-21 19:34N 53°52' E 007°55'1312.9
2016-Jul-21 18:33N 53°45' E 008°13'1514.8
2016-Jul-21 17:33N 53°35' E 008°32'1 1.3
2016-Jul-21 16:33N 53°34' E 008°33'1 0.9
2016-Jul-21 15:32N 53°35' E 008°34'0 0.0
2016-Jul-21 14:31N 53°35' E 008°34'0 0.0
2016-Jul-21 13:32N 53°35' E 008°34'0 0.0
2016-Jul-21 12:32N 53°35' E 008°34'0 0.0
2016-Jul-21 11:29N 53°35' E 008°34'0 0.0
2016-Jul-21 10:32N 53°35' E 008°34'0 0.0
2016-Jul-21 09:31N 53°35' E 008°34'0 0.0
2016-Jul-21 08:32N 53°35' E 008°34'0 0.0
2016-Jul-21 07:32N 53°35' E 008°34'0 0.0
2016-Jul-21 06:29N 53°35' E 008°34'0 0.0
2016-Jul-21 05:33N 53°35' E 008°34'1 0.5
2016-Jul-21 04:33N 53°34' E 008°33'2 1.8
2016-Jul-21 03:33N 53°36' E 008°31'8 8.4
2016-Jul-21 02:33N 53°41' E 008°21'9 8.9
2016-Jul-21 01:34N 53°47' E 008°09'9 9.1
2016-Jul-21 00:33N 53°52' E 007°56'1010.3
2016-Jul-20 23:33N 53°53' E 007°38'3 2.6
2016-Jul-20 22:33N 53°52' E 007°34'5 4.7
2016-Jul-20 21:33N 53°54' E 007°26'1111.3
2016-Jul-20 20:33N 53°51' E 007°08'1413.9
2016-Jul-20 19:33N 53°47' E 006°46'1413.5
2016-Jul-20 18:33N 53°45' E 006°23'1413.5
2016-Jul-20 17:33N 53°41' E 006°01'1312.8
2016-Jul-20 16:33N 53°37' E 005°41'1212.1
2016-Jul-20 15:33N 53°33' E 005°22'1211.6
2016-Jul-20 14:33N 53°29' E 005°03'2310.3
2016-Jul-20 12:20N 53°14' E 004°34'1111.5
2016-Jul-20 11:24N 53°05' E 004°26'1011.5
2016-Jul-20 10:31N 52°56' E 004°18'1111.2
2016-Jul-20 09:33N 52°46' E 004°09'1511.3
2016-Jul-20 08:11N 52°35' E 003°52'711.4
2016-Jul-20 07:32N 52°30' E 003°43'  
Track history (hours):
 
Tides and Currents Weather Stations Pressure Air Temp Water Temp Dewpoint Dewpoint Depression Visibility Wind Speed Wind Dir Waves Ship Positions

Sikinos

Last reported at 2016-Jul-30 06:33 UTC. Time now 2016-Jul-30 07:22 UTC.
Position N 51°21' E 002°50'.

Length 90 m; draft 4.8 m.

Type: Ship (hazmat cat A). MMSI: 256462000.

Date/timePositionNaut miles runAvg speedWind from/ knotsBaromVisibWave heightAir tempDewpointWater temp
2016-Jul-30 06:33N 51°21' E 002°50'1211.7
2016-Jul-30 05:33N 51°22' E 002°31'1111.3
2016-Jul-30 04:33N 51°17' E 002°15'1111.2
2016-Jul-30 03:33N 51°11' E 001°60'1111.0
2016-Jul-30 02:33N 51°05' E 001°46'1111.2
2016-Jul-30 01:33N 50°57' E 001°32'7412.1
2016-Jul-29 19:28N 50°01' E 000°16'1213.3
2016-Jul-29 18:33N 49°53' E 000°03'1312.6
2016-Jul-29 17:33N 49°43' W 000°09'1312.8
2016-Jul-29 16:33N 49°31' E 000°00'7 6.5
2016-Jul-29 15:33N 49°28' E 000°09'0 0.0
2016-Jul-29 14:33N 49°28' E 000°09'0 0.0
2016-Jul-29 13:33N 49°28' E 000°09'0 0.0
2016-Jul-29 12:30N 49°28' E 000°09'0 0.0
2016-Jul-29 11:33N 49°28' E 000°09'0 0.0
2016-Jul-29 10:33N 49°28' E 000°09'0 0.0
2016-Jul-29 09:33N 49°28' E 000°09'1 1.2
2016-Jul-29 08:34N 49°28' E 000°07'8 7.5
2016-Jul-29 07:31N 49°30' W 000°05'0 0.0
2016-Jul-29 06:31N 49°30' W 000°05'0 0.0
2016-Jul-29 05:31N 49°30' W 000°05'0 0.0
2016-Jul-29 04:31N 49°30' W 000°05'0 0.0
2016-Jul-29 03:31N 49°30' W 000°05'0 0.0
2016-Jul-29 02:31N 49°30' W 000°05'0 0.0
2016-Jul-29 01:31N 49°30' W 000°05'0 0.0
2016-Jul-29 00:31N 49°30' W 000°05'5 5.2
2016-Jul-28 23:33N 49°35' W 000°06'1212.4
2016-Jul-28 22:33N 49°47' W 000°10'1212.3
2016-Jul-28 21:33N 49°59' W 000°07'1212.2
2016-Jul-28 20:33N 50°11' W 000°06'1512.1
2016-Jul-28 19:20N 50°26' W 000°10'1012.1
2016-Jul-28 18:33N 50°29' E 000°04'1211.7
2016-Jul-28 17:33N 50°32' E 000°22'3510.9
2016-Jul-28 14:18N 50°50' E 001°10'1012.9
2016-Jul-28 13:33N 50°57' E 001°21'1413.8
2016-Jul-28 12:34N 51°07' E 001°36'1313.1
2016-Jul-28 11:33N 51°17' E 001°49'1212.3
2016-Jul-28 10:33N 51°28' E 001°58'1111.3
2016-Jul-28 09:33N 51°38' E 002°07'1211.0
2016-Jul-28 08:30N 51°48' E 002°16'2211.3
2016-Jul-28 06:33N 52°10' E 002°17'4112.9
2016-Jul-28 03:25N 52°48' E 001°53'1214.2
2016-Jul-28 02:33N 52°55' E 001°37'1414.1
2016-Jul-28 01:33N 53°07' E 001°24'1413.8
2016-Jul-28 00:32N 53°19' E 001°11'1313.2
2016-Jul-27 23:33N 53°27' E 000°54'1312.7
2016-Jul-27 22:31N 53°37' E 000°41'5 1.5
2016-Jul-27 19:25N 53°42' E 000°40'15 1.9
2016-Jul-27 11:31N 53°32' E 000°20'8 8.3
2016-Jul-27 10:33N 53°33' E 000°07'1110.6
2016-Jul-27 09:34N 53°38' W 000°09'2 1.6
2016-Jul-27 08:33N 53°38' W 000°12'0 0.0
2016-Jul-27 07:33N 53°38' W 000°12'0 0.0
2016-Jul-27 06:30N 53°38' W 000°12'0 0.0
2016-Jul-27 05:33N 53°38' W 000°12'6 6.0
2016-Jul-27 04:33N 53°36' W 000°02'10 9.8
2016-Jul-27 03:33N 53°33' E 000°13'7 6.7
2016-Jul-27 02:33N 53°33' E 000°25'2412.0
2016-Jul-27 00:32N 53°20' E 000°59'2210.9
2016-Jul-26 22:32N 53°05' E 001°25'1212.0
2016-Jul-26 21:33N 52°56' E 001°37'1413.3
2016-Jul-26 20:32N 52°47' E 001°54'5813.8
2016-Jul-26 16:21N 51°54' E 002°31'1112.2
2016-Jul-26 15:28N 51°47' E 002°44'2211.4
2016-Jul-26 13:34N 51°42' E 003°18'1110.7
2016-Jul-26 12:33N 51°32' E 003°26'10 9.6
2016-Jul-26 11:33N 51°26' E 003°38'3 2.8
2016-Jul-26 10:31N 51°28' E 003°42'0 0.0
2016-Jul-26 09:31N 51°28' E 003°42'0 0.0
2016-Jul-26 08:31N 51°28' E 003°42'0 0.0
2016-Jul-26 07:31N 51°28' E 003°42'0 0.0
2016-Jul-26 06:31N 51°28' E 003°42'0 0.0
2016-Jul-26 05:31N 51°28' E 003°42'0 0.0
2016-Jul-26 04:31N 51°28' E 003°42'0 0.0
2016-Jul-26 03:31N 51°28' E 003°42'0 0.0
2016-Jul-26 02:25N 51°28' E 003°42'0 0.0
2016-Jul-26 01:31N 51°28' E 003°42'0 0.0
2016-Jul-26 00:31N 51°28' E 003°42'0 0.0
2016-Jul-25 23:31N 51°28' E 003°42'3 2.7
2016-Jul-25 22:34N 51°26' E 003°39'1010.3
2016-Jul-25 21:33N 51°24' E 003°22'1110.8
2016-Jul-25 20:33N 51°24' E 003°05'1212.2
2016-Jul-25 19:33N 51°22' E 002°46'4 4.2
2016-Jul-25 18:33N 51°22' E 002°39'3 2.9
2016-Jul-25 17:33N 51°20' E 002°35'4 3.6
2016-Jul-25 16:33N 51°21' E 002°30'1514.8
2016-Jul-25 15:33N 51°15' E 002°09'1414.4
2016-Jul-25 14:33N 51°07' E 001°49'6 6.0
2016-Jul-25 13:33N 51°03' E 001°56'10 9.6
2016-Jul-25 12:33N 51°01' E 002°11'0 0.1
2016-Jul-25 11:11N 51°01' E 002°11'0 0.0
2016-Jul-25 10:14N 51°01' E 002°11'0 0.0
2016-Jul-25 09:32N 51°01' E 002°11'0 0.2
2016-Jul-25 07:32N 51°01' E 002°10'9 9.1
2016-Jul-25 06:33N 51°02' E 001°56'3 3.1
2016-Jul-25 05:33N 51°05' E 001°58'1010.3
2016-Jul-25 04:33N 51°09' E 002°13'10 9.8
2016-Jul-25 03:32N 51°14' E 002°27'1010.2
2016-Jul-25 02:33N 51°20' E 002°39'9 8.8
2016-Jul-25 01:32N 51°22' E 002°53'1212.0
2016-Jul-25 00:33N 51°21' E 003°12'1 0.6
2016-Jul-24 22:20N 51°20' E 003°12'0 0.0
2016-Jul-24 20:26N 51°20' E 003°12'0 0.0
2016-Jul-24 15:26N 51°20' E 003°12'0 0.0
2016-Jul-24 14:33N 51°20' E 003°12'0 0.0
2016-Jul-24 13:33N 51°20' E 003°12'0 0.0
2016-Jul-24 12:33N 51°20' E 003°12'1 0.8
2016-Jul-24 11:22N 51°21' E 003°12'0 0.0
2016-Jul-24 07:22N 51°21' E 003°12'0 0.0
2016-Jul-24 05:28N 51°21' E 003°12'0 0.0
2016-Jul-24 04:28N 51°21' E 003°12'0 0.0
2016-Jul-24 03:19N 51°21' E 003°12'0 0.0
2016-Jul-24 02:28N 51°21' E 003°12'0 0.0
2016-Jul-24 00:28N 51°21' E 003°12'0 0.0
2016-Jul-23 19:33N 51°21' E 003°12'7 7.5
2016-Jul-23 18:33N 51°21' E 003°00'1111.0
2016-Jul-23 17:33N 51°24' E 002°43'1110.6
2016-Jul-23 16:34N 51°34' E 002°41'1110.9
2016-Jul-23 15:34N 51°45' E 002°42'1010.2
2016-Jul-23 14:33N 51°55' E 002°36'2711.6
2016-Jul-23 12:12N 52°03' E 003°18'913.0
2016-Jul-23 11:31N 52°04' E 003°32'1111.9
2016-Jul-23 10:34N 52°02' E 003°51'1111.0
2016-Jul-23 09:33N 51°58' E 004°08'9 9.0
2016-Jul-23 08:34N 51°53' E 004°19'1 0.0
2016-Jul-22 14:34N 51°53' E 004°19'10 9.9
2016-Jul-22 13:33N 51°59' E 004°05'1010.3
2016-Jul-22 12:33N 52°03' E 003°50'1212.2
2016-Jul-22 11:33N 52°15' E 003°46'1413.6
2016-Jul-22 10:31N 52°29' E 003°51'7612.0
2016-Jul-22 04:11N 53°33' E 005°00'914.6
2016-Jul-22 03:33N 53°36' E 005°15'1414.5
2016-Jul-22 02:34N 53°40' E 005°38'1414.2
2016-Jul-22 01:34N 53°45' E 006°00'1413.5
2016-Jul-22 00:33N 53°49' E 006°22'1312.6
2016-Jul-21 23:33N 53°52' E 006°43'1211.9
2016-Jul-21 22:33N 53°55' E 007°02'1211.7
2016-Jul-21 21:33N 53°58' E 007°22'1111.2
2016-Jul-21 20:34N 53°58' E 007°41'1110.6
2016-Jul-21 19:34N 53°52' E 007°55'1312.9
2016-Jul-21 18:33N 53°45' E 008°13'1514.8
2016-Jul-21 17:33N 53°35' E 008°32'1 1.3
2016-Jul-21 16:33N 53°34' E 008°33'1 0.9
2016-Jul-21 15:32N 53°35' E 008°34'0 0.0
2016-Jul-21 14:31N 53°35' E 008°34'0 0.0
2016-Jul-21 13:32N 53°35' E 008°34'0 0.0
2016-Jul-21 12:32N 53°35' E 008°34'0 0.0
2016-Jul-21 11:29N 53°35' E 008°34'0 0.0
2016-Jul-21 10:32N 53°35' E 008°34'0 0.0
2016-Jul-21 09:31N 53°35' E 008°34'0 0.0
2016-Jul-21 08:32N 53°35' E 008°34'0 0.0
2016-Jul-21 07:32N 53°35' E 008°34'0 0.0
2016-Jul-21 06:29N 53°35' E 008°34'0 0.0
2016-Jul-21 05:33N 53°35' E 008°34'1 0.5
2016-Jul-21 04:33N 53°34' E 008°33'2 1.8
2016-Jul-21 03:33N 53°36' E 008°31'8 8.4
2016-Jul-21 02:33N 53°41' E 008°21'9 8.9
2016-Jul-21 01:34N 53°47' E 008°09'9 9.1
2016-Jul-21 00:33N 53°52' E 007°56'1010.3
2016-Jul-20 23:33N 53°53' E 007°38'3 2.6
2016-Jul-20 22:33N 53°52' E 007°34'5 4.7
2016-Jul-20 21:33N 53°54' E 007°26'1111.3
2016-Jul-20 20:33N 53°51' E 007°08'1413.9
2016-Jul-20 19:33N 53°47' E 006°46'1413.5
2016-Jul-20 18:33N 53°45' E 006°23'1413.5
2016-Jul-20 17:33N 53°41' E 006°01'1312.8
2016-Jul-20 16:33N 53°37' E 005°41'1212.1
2016-Jul-20 15:33N 53°33' E 005°22'1211.6
2016-Jul-20 14:33N 53°29' E 005°03'2310.3
2016-Jul-20 12:20N 53°14' E 004°34'1111.5
2016-Jul-20 11:24N 53°05' E 004°26'1011.5
2016-Jul-20 10:31N 52°56' E 004°18'1111.2
2016-Jul-20 09:33N 52°46' E 004°09'1511.3
2016-Jul-20 08:11N 52°35' E 003°52'711.4
2016-Jul-20 07:32N 52°30' E 003°43'  

Dump ship's entire track history